createdAt,value
2023-05-19T00:04:49.880Z,56.71686
2023-05-19T00:10:02.228Z,57.09511
2023-05-19T00:15:14.376Z,57.35731
2023-05-19T00:20:26.584Z,57.65283
2023-05-19T00:25:40.549Z,57.94836
2023-05-19T00:30:52.698Z,57.77044
2023-05-19T00:36:04.920Z,58.05029
2023-05-19T00:41:17.201Z,58.30285
2023-05-19T00:46:29.519Z,58.99951
2023-05-19T00:51:41.853Z,59.34963
2023-05-19T00:56:54.123Z,59.62668
2023-05-19T01:02:06.467Z,60.18762
2023-05-19T01:07:18.677Z,60.76704
2023-05-19T01:12:30.853Z,61.08867
2023-05-19T01:17:43.151Z,61.81948
2023-05-19T01:22:55.508Z,61.98411
2023-05-19T01:28:08.180Z,62.09855
2023-05-19T01:33:26.677Z,62.15517
2023-05-19T01:38:38.834Z,61.73234
2023-05-19T01:43:51.086Z,61.03163
2023-05-19T01:49:03.401Z,61.39463
2023-05-19T01:54:15.613Z,61.61707
2023-05-19T01:59:27.887Z,61.93148
2023-05-19T02:04:40.229Z,62.72173
2023-05-19T02:09:52.575Z,62.86346
2023-05-19T02:15:04.732Z,63.19433
2023-05-19T02:20:19.696Z,63.59988
2023-05-19T02:25:31.879Z,64.4359
2023-05-19T02:30:44.037Z,65.02015
2023-05-19T02:35:56.224Z,65.43214
2023-05-19T02:41:08.384Z,65.29802
2023-05-19T02:46:20.613Z,65.5759
2023-05-19T02:51:32.869Z,66.0429
2023-05-19T02:56:45.178Z,65.17315
2023-05-19T03:01:57.380Z,64.5138
2023-05-19T03:07:10.127Z,64.82941
2023-05-19T03:12:22.389Z,64.86273
2023-05-19T03:17:34.793Z,65.4257
2023-05-19T03:22:47.030Z,65.81319
2023-05-19T03:27:59.187Z,66.23722
2023-05-19T03:33:11.544Z,66.63234
2023-05-19T03:38:24.027Z,66.27817
2023-05-19T03:43:36.249Z,65.91637
2023-05-19T03:48:48.409Z,65.96936
2023-05-19T03:54:00.788Z,65.13895
2023-05-19T03:59:12.946Z,65.44532
2023-05-19T04:04:25.374Z,65.32606
2023-05-19T04:09:38.619Z,65.82638
2023-05-19T04:14:51.207Z,65.71313
2023-05-19T04:20:03.411Z,65.49789
2023-05-19T04:25:15.567Z,65.73882
2023-05-19T04:30:27.743Z,66.01509
2023-05-19T04:35:39.898Z,65.99863
2023-05-19T04:40:52.111Z,65.60232
2023-05-19T04:46:04.277Z,65.54813
2023-05-19T04:51:16.821Z,65.44817
2023-05-19T04:56:29.056Z,65.04465
2023-05-19T05:01:41.404Z,64.66281
2023-05-19T05:06:53.639Z,64.19824
2023-05-19T05:12:05.781Z,63.82964
2023-05-19T05:17:17.929Z,63.55742
2023-05-19T05:22:30.068Z,62.90456
2023-05-19T05:27:42.217Z,63.0885
2023-05-19T05:32:54.423Z,62.31071
2023-05-19T05:38:06.692Z,62.20152
2023-05-19T05:43:18.933Z,62.09792
2023-05-19T05:48:31.087Z,61.97434
2023-05-19T05:53:43.274Z,60.28798
2023-05-19T05:58:55.430Z,58.31689
2023-05-19T06:04:07.663Z,56.47913
2023-05-19T06:09:22.013Z,55.1734
2023-05-19T06:14:34.374Z,54.2503
2023-05-19T06:19:46.544Z,53.46618
2023-05-19T06:25:00.430Z,53.02133
2023-05-19T06:30:12.573Z,52.43102
2023-05-19T06:35:24.854Z,52.884
2023-05-19T06:40:37.004Z,52.16928
2023-05-19T06:45:49.182Z,51.70513
2023-05-19T06:51:01.402Z,51.13417
2023-05-19T06:56:13.562Z,51.3699
2023-05-19T07:01:25.844Z,50.31631
2023-05-19T07:06:38.102Z,50.55484
2023-05-19T07:11:54.754Z,50.82431
2023-05-19T07:17:06.929Z,50.48494
2023-05-19T07:22:19.187Z,51.71358
2023-05-19T07:27:31.331Z,52.03687
2023-05-19T07:32:43.567Z,51.46425
2023-05-19T07:37:56.640Z,51.14143
2023-05-19T07:43:10.577Z,52.28621
2023-05-19T07:48:22.716Z,51.91319
2023-05-19T07:53:37.613Z,52.00148
2023-05-19T07:58:49.796Z,52.08899
2023-05-19T08:04:02.221Z,51.8613
2023-05-19T08:09:14.549Z,52.76318
2023-05-19T08:14:26.706Z,54.82762
2023-05-19T08:19:38.864Z,52.36001
2023-05-19T08:24:51.023Z,52.10383
2023-05-19T08:30:03.179Z,52.45717
2023-05-19T08:35:15.459Z,52.3038
2023-05-19T08:40:27.627Z,52.06807
2023-05-19T08:45:39.766Z,52.23431
2023-05-19T08:50:51.925Z,51.84728
2023-05-19T08:56:04.326Z,51.61845
2023-05-19T09:01:18.238Z,50.8334
2023-05-19T09:06:30.810Z,50.50736
2023-05-19T09:11:43.024Z,50.38892
2023-05-19T09:16:55.318Z,50.00387
2023-05-19T09:22:07.493Z,50.13398
2023-05-19T09:27:19.667Z,49.9119
2023-05-19T09:32:31.883Z,49.3931
2023-05-19T09:37:44.075Z,50.10949
2023-05-19T09:42:56.236Z,50.45561
2023-05-19T09:48:08.405Z,50.87845
2023-05-19T09:53:20.667Z,50.5712
2023-05-19T09:58:32.845Z,51.20564
2023-05-19T10:03:45.093Z,50.66275
2023-05-19T10:08:57.252Z,51.39995
2023-05-19T10:14:09.410Z,51.19033
2023-05-19T10:19:21.738Z,52.07134
2023-05-19T10:24:34.025Z,50.87591
2023-05-19T10:29:46.200Z,51.43327
2023-05-19T10:34:58.400Z,52.39453
2023-05-19T10:40:10.567Z,51.42201
2023-05-19T10:45:23.676Z,51.69984
2023-05-19T10:50:35.955Z,52.27967
2023-05-19T10:55:48.115Z,52.27687
2023-05-19T11:01:00.326Z,52.94665
2023-05-19T11:06:14.402Z,52.6383
2023-05-19T11:11:29.052Z,51.22686
2023-05-19T11:16:41.695Z,52.41586
2023-05-19T11:21:54.221Z,50.99398
2023-05-19T11:27:06.777Z,51.26501
2023-05-19T11:32:19.044Z,51.57096
2023-05-19T11:37:33.288Z,51.80909
2023-05-19T11:42:45.468Z,51.37504
2023-05-19T11:48:02.496Z,51.84204
2023-05-19T11:53:18.544Z,52.37693
2023-05-19T11:58:30.703Z,52.73193
2023-05-19T12:03:42.918Z,51.12493
2023-05-19T12:08:58.364Z,51.51081
2023-05-19T12:14:11.303Z,51.40644
2023-05-19T12:19:31.879Z,51.54335
2023-05-19T12:24:47.311Z,51.66464
2023-05-19T12:29:59.854Z,50.34398
2023-05-19T12:35:12.463Z,50.83543
2023-05-19T12:40:24.623Z,51.76502
2023-05-19T12:45:36.867Z,51.85854
2023-05-19T12:50:49.331Z,51.96011
2023-05-19T12:56:01.508Z,52.78928
2023-05-19T13:01:13.846Z,52.46802
2023-05-19T13:06:26.177Z,52.93902
2023-05-19T13:11:38.407Z,52.84144
2023-05-19T13:16:50.705Z,53.61123
2023-05-19T13:22:02.964Z,53.37031
2023-05-19T13:27:15.116Z,53.36512
2023-05-19T13:32:29.437Z,54.27306
2023-05-19T13:37:43.872Z,52.52676
2023-05-19T13:42:56.124Z,51.46991
2023-05-19T13:48:08.302Z,51.28924
2023-05-19T13:53:20.473Z,52.14576
2023-05-19T14:03:53.175Z,51.80404
2023-05-19T14:09:05.505Z,51.68997
2023-05-19T14:14:17.653Z,51.45024
2023-05-19T14:19:29.894Z,51.22655
2023-05-19T14:24:42.081Z,51.71602
2023-05-19T14:29:54.273Z,52.42799
2023-05-19T14:35:08.315Z,52.12241
2023-05-19T14:40:20.508Z,51.56551
2023-05-19T14:45:32.673Z,51.91485
2023-05-19T14:50:44.912Z,52.01569
2023-05-19T14:55:57.192Z,50.91343
2023-05-19T15:01:09.399Z,51.07966
2023-05-19T15:06:22.071Z,51.1094
2023-05-19T15:11:34.385Z,51.05797
2023-05-19T15:16:46.634Z,50.64598
2023-05-19T15:21:58.828Z,51.44302
2023-05-19T15:27:11.015Z,51.90318
2023-05-19T15:32:23.647Z,51.88428
2023-05-19T15:37:35.787Z,52.46049
2023-05-19T15:42:47.939Z,52.52552
2023-05-19T15:48:00.156Z,53.05958
2023-05-19T15:53:12.418Z,53.73418
2023-05-19T15:58:25.144Z,53.36797
2023-05-19T16:03:37.447Z,52.26653
2023-05-19T16:08:50.529Z,52.64681
2023-05-19T16:14:02.769Z,52.9809
2023-05-19T16:19:15.089Z,52.5934
2023-05-19T16:24:29.865Z,52.5866
2023-05-19T16:29:42.592Z,52.78819
2023-05-19T16:34:55.250Z,52.99942
2023-05-19T16:40:09.021Z,52.38668
2023-05-19T16:45:21.540Z,52.10922
2023-05-19T16:50:33.892Z,52.64006
2023-05-19T16:55:46.469Z,52.38549
2023-05-19T17:00:58.672Z,51.79319
2023-05-19T17:06:10.856Z,52.63767
2023-05-19T17:11:23.113Z,52.56579
2023-05-19T17:16:35.299Z,52.83806
2023-05-19T17:21:51.979Z,52.56781
2023-05-19T17:27:04.125Z,52.54248
2023-05-19T17:32:16.304Z,53.16648
2023-05-19T17:37:28.530Z,53.56161
2023-05-19T17:42:40.683Z,53.66079
2023-05-19T17:47:52.886Z,53.30781
2023-05-19T17:53:05.100Z,54.09042
2023-05-19T17:58:17.258Z,53.74669
2023-05-19T18:03:29.518Z,54.22972
2023-05-19T18:08:41.972Z,54.83686
2023-05-19T18:13:54.124Z,55.37331
2023-05-19T18:19:06.343Z,55.13358
2023-05-19T18:24:18.702Z,56.51849
2023-05-19T18:29:31.354Z,56.46426
2023-05-19T18:34:43.495Z,56.98783
2023-05-19T18:39:55.710Z,57.35722
2023-05-19T18:45:07.905Z,57.53706
2023-05-19T18:50:20.042Z,58.05539
2023-05-19T18:55:32.318Z,59.45272
2023-05-19T19:00:46.868Z,60.67254
2023-05-19T19:06:02.120Z,60.04366
2023-05-19T19:11:16.539Z,60.91897
2023-05-19T19:16:28.781Z,62.89369
2023-05-19T19:21:40.974Z,63.10203
2023-05-19T19:26:53.134Z,63.92071
2023-05-19T19:32:05.391Z,66.67446
2023-05-19T19:37:17.660Z,70.19717
2023-05-19T19:42:29.825Z,68.9214
2023-05-19T19:47:43.232Z,68.53989
2023-05-19T19:52:55.445Z,68.90002
2023-05-19T19:58:07.681Z,71.53372
2023-05-19T20:03:20.494Z,71.62725
2023-05-19T20:08:32.809Z,73.76987
2023-05-19T20:13:45.401Z,73.54939
2023-05-19T20:18:57.561Z,75.19693
2023-05-19T20:24:09.892Z,75.55671
2023-05-19T20:29:23.078Z,76.50114
2023-05-19T20:34:35.575Z,76.46943
2023-05-19T20:39:48.081Z,76.85655
2023-05-19T20:45:00.365Z,77.02643
2023-05-19T20:50:12.521Z,79.06711
2023-05-19T20:55:24.869Z,76.11614
2023-05-19T21:00:37.303Z,77.72636
2023-05-19T21:05:49.841Z,75.25163
2023-05-19T21:11:02.107Z,75.44719
2023-05-19T21:16:14.800Z,74.20521
2023-05-19T21:21:27.082Z,75.92825
2023-05-19T21:26:39.391Z,76.26276
2023-05-19T21:31:51.544Z,74.28674
2023-05-19T21:37:03.756Z,74.73688
2023-05-19T21:42:15.924Z,75.94232
2023-05-19T21:47:28.878Z,74.43289
2023-05-19T21:52:41.311Z,73.85867
2023-05-19T21:57:54.044Z,73.97269
2023-05-19T22:03:06.337Z,76.14105
2023-05-19T22:08:18.611Z,75.8708
2023-05-19T22:13:30.760Z,75.72382
2023-05-19T22:18:43.086Z,73.89838
2023-05-19T22:23:55.332Z,75.56355
2023-05-19T22:29:08.166Z,76.51479
2023-05-19T22:34:20.508Z,78.12055
2023-05-19T22:39:32.755Z,78.18558
2023-05-19T22:44:45.094Z,77.24836
2023-05-19T22:49:57.420Z,77.31982
2023-05-19T22:55:09.698Z,76.14771
2023-05-19T23:00:22.587Z,77.16241
2023-05-19T23:05:35.270Z,77.60492
2023-05-19T23:10:47.952Z,79.45886
2023-05-19T23:16:00.171Z,76.96244
2023-05-19T23:21:12.946Z,77.11944
2023-05-19T23:26:25.181Z,76.52715
2023-05-19T23:31:37.468Z,76.19587
2023-05-19T23:36:49.840Z,79.45642
2023-05-19T23:42:02.162Z,80.59881
2023-05-19T23:47:14.384Z,80.61687
2023-05-19T23:52:26.729Z,80.06273
2023-05-19T23:57:39.047Z,81.55165
